createdAt,value
2024-03-04T00:05:48.611Z,6.75
2024-03-04T00:11:52.052Z,7.68
2024-03-04T00:17:57.196Z,8.02
2024-03-04T00:24:00.637Z,7.72
2024-03-04T00:30:05.821Z,8.45
2024-03-04T00:36:11.476Z,8.07
2024-03-04T00:42:15.037Z,7.40
2024-03-04T00:48:19.100Z,7.80
2024-03-04T00:54:24.376Z,7.85
2024-03-04T01:00:28.924Z,9.30
2024-03-04T01:06:32.470Z,9.40
2024-03-04T01:12:37.517Z,9.40
2024-03-04T01:18:41.711Z,9.50
2024-03-04T01:24:45.996Z,9.10
2024-03-04T01:30:51.852Z,10.13
2024-03-04T01:36:55.326Z,8.73
2024-03-04T01:42:59.001Z,9.60
2024-03-04T01:49:04.428Z,9.70
2024-03-04T01:55:08.471Z,12.07
2024-03-04T02:01:12.073Z,9.68
2024-03-04T02:07:18.502Z,8.65
2024-03-04T02:13:23.159Z,8.60
2024-03-04T02:19:26.728Z,8.65
2024-03-04T02:25:36.901Z,7.80
2024-03-04T02:31:41.454Z,8.02
2024-03-04T02:37:46.183Z,7.25
2024-03-04T02:43:52.455Z,8.20
2024-03-04T02:49:55.992Z,6.65
2024-03-04T02:55:59.494Z,6.57
2024-03-04T03:02:06.525Z,7.10
2024-03-04T03:08:10.162Z,6.68
2024-03-04T03:14:13.698Z,5.80
2024-03-04T03:20:19.573Z,5.82
2024-03-04T03:26:24.124Z,6.30
2024-03-04T03:32:27.792Z,5.45
2024-03-04T03:38:33.189Z,5.63
2024-03-04T03:44:36.831Z,5.68
2024-03-04T03:50:40.383Z,5.55
2024-03-04T03:56:45.403Z,5.03
2024-03-04T04:02:49.044Z,4.53
2024-03-04T04:08:52.627Z,4.63
2024-03-04T04:14:57.472Z,4.65
2024-03-04T04:21:00.935Z,5.25
2024-03-04T04:27:04.432Z,4.72
2024-03-04T04:33:09.409Z,6.18
2024-03-04T04:39:13.228Z,5.40
2024-03-04T04:45:16.752Z,5.13
2024-03-04T04:51:21.536Z,4.25
2024-03-04T04:57:25.018Z,4.45
2024-03-04T05:03:41.378Z,4.53
2024-03-04T05:09:54.234Z,4.28
2024-03-04T05:15:57.973Z,4.25
2024-03-04T05:22:01.464Z,4.10
2024-03-04T05:28:06.727Z,4.50
2024-03-04T05:34:10.220Z,4.20
2024-03-04T05:40:16.232Z,3.88
2024-03-04T05:46:23.792Z,4.50
2024-03-04T05:52:27.396Z,4.40
2024-03-04T05:58:30.944Z,4.13
2024-03-04T06:04:37.624Z,4.63
2024-03-04T06:10:43.317Z,4.10
2024-03-04T06:16:47.098Z,4.72
2024-03-04T06:22:52.419Z,4.18
2024-03-04T06:28:55.892Z,4.05
2024-03-04T06:34:59.800Z,4.50
2024-03-04T06:41:04.728Z,4.45
2024-03-04T06:47:08.394Z,4.50
2024-03-04T06:53:11.842Z,4.97
2024-03-04T06:59:16.797Z,4.28
2024-03-04T07:05:20.314Z,4.75
2024-03-04T07:11:23.865Z,4.85
2024-03-04T07:17:29.070Z,4.93
2024-03-04T07:23:32.609Z,5.10
2024-03-04T07:29:41.039Z,5.05
2024-03-04T07:35:48.450Z,6.25
2024-03-04T07:41:51.973Z,6.78
2024-03-04T07:47:55.589Z,6.32
2024-03-04T07:54:00.847Z,7.57
2024-03-04T08:00:07.356Z,8.13
2024-03-04T08:06:12.141Z,8.30
2024-03-04T08:12:17.880Z,8.65
2024-03-04T08:18:23.526Z,7.95
2024-03-04T08:24:27.020Z,7.95
2024-03-04T08:30:31.898Z,8.02
2024-03-04T08:36:35.747Z,7.75
2024-03-04T08:42:42.655Z,7.40
2024-03-04T08:48:47.538Z,7.35
2024-03-04T08:54:51.026Z,7.70
2024-03-04T09:00:54.517Z,7.90
2024-03-04T09:06:59.622Z,6.85
2024-03-04T09:13:03.157Z,6.00
2024-03-04T09:19:07.205Z,5.68
2024-03-04T09:25:12.120Z,5.85
2024-03-04T09:31:15.605Z,5.30
2024-03-04T09:37:19.157Z,5.10
2024-03-04T09:43:29.111Z,4.10
2024-03-04T09:49:32.729Z,3.90
2024-03-04T09:55:36.576Z,3.50
2024-03-04T10:01:41.550Z,3.10
2024-03-04T10:07:45.242Z,3.08
2024-03-04T10:13:49.251Z,2.83
2024-03-04T10:20:00.997Z,2.58
2024-03-04T10:26:10.867Z,2.72
2024-03-04T10:32:19.737Z,2.90
2024-03-04T10:38:24.703Z,8.13
2024-03-04T10:44:28.470Z,2.72
2024-03-04T10:50:32.353Z,2.80
2024-03-04T10:56:37.948Z,2.92
2024-03-04T11:02:44.665Z,2.13
2024-03-04T11:08:50.313Z,1.70
2024-03-04T11:14:57.542Z,1.90
2024-03-04T11:21:01.183Z,1.90
2024-03-04T11:27:05.309Z,1.52
2024-03-04T11:33:27.327Z,2.20
2024-03-04T11:39:32.160Z,1.60
2024-03-04T11:45:36.120Z,1.60
2024-03-04T11:51:47.595Z,1.55
2024-03-04T11:57:52.660Z,1.92
2024-03-04T12:03:56.084Z,1.80
2024-03-04T12:10:08.834Z,1.48
2024-03-04T12:16:17.809Z,1.02
2024-03-04T12:22:25.348Z,1.58
2024-03-04T12:28:29.327Z,2.10
2024-03-04T12:34:34.296Z,4.65
2024-03-04T12:40:37.882Z,1.77
2024-03-04T12:46:41.404Z,6.68
2024-03-04T12:52:46.441Z,3.65
2024-03-04T12:58:49.967Z,4.05
2024-03-04T13:04:54.597Z,3.42
2024-03-04T13:10:59.997Z,2.40
2024-03-04T13:17:03.832Z,2.33
2024-03-04T13:23:07.282Z,1.60
2024-03-04T13:29:12.621Z,1.20
2024-03-04T13:35:16.103Z,1.30
2024-03-04T13:41:19.546Z,1.50
2024-03-04T13:47:24.445Z,1.70
2024-03-04T13:53:28.146Z,1.67
2024-03-04T13:59:34.567Z,1.35
2024-03-04T14:05:40.289Z,1.80
2024-03-04T14:11:43.828Z,1.20
2024-03-04T14:17:47.383Z,1.10
2024-03-04T14:23:52.227Z,1.35
2024-03-04T14:29:59.943Z,1.20
2024-03-04T14:36:03.786Z,0.98
2024-03-04T14:42:08.668Z,1.20
2024-03-04T14:48:12.227Z,1.25
2024-03-04T14:54:15.694Z,0.98
2024-03-04T15:00:21.135Z,1.00
2024-03-04T15:06:24.757Z,1.33
2024-03-04T15:12:28.260Z,0.90
2024-03-04T15:18:36.756Z,0.80
2024-03-04T15:24:40.956Z,0.80
2024-03-04T15:30:44.751Z,0.70
2024-03-04T15:36:51.122Z,0.50
2024-03-04T15:42:55.292Z,0.68
2024-03-04T15:48:58.753Z,0.60
2024-03-04T15:55:03.957Z,1.13
2024-03-04T16:01:07.522Z,0.93
2024-03-04T16:07:11.205Z,0.80
2024-03-04T16:13:16.116Z,0.70
2024-03-04T16:19:19.639Z,0.57
2024-03-04T16:25:23.197Z,0.68
2024-03-04T16:31:29.146Z,1.00
2024-03-04T16:37:34.064Z,0.70
2024-03-04T16:43:39.638Z,0.80
2024-03-04T16:49:47.940Z,1.10
2024-03-04T16:55:51.601Z,1.02
2024-03-04T17:01:55.234Z,1.10
2024-03-04T17:08:00.247Z,1.85
2024-03-04T17:14:03.844Z,1.40
2024-03-04T17:20:10.174Z,1.45
2024-03-04T17:26:15.065Z,1.27
2024-03-04T17:32:18.528Z,1.42
2024-03-04T17:38:22.238Z,1.42
2024-03-04T17:44:27.026Z,1.67
2024-03-04T17:50:30.547Z,1.65
2024-03-04T17:56:35.126Z,2.05
2024-03-04T18:02:40.054Z,2.33
2024-03-04T18:08:43.583Z,2.60
2024-03-04T18:14:47.083Z,2.38
2024-03-04T18:20:52.442Z,2.47
2024-03-04T18:26:55.980Z,3.03
2024-03-04T18:32:59.697Z,3.28
2024-03-04T18:39:04.984Z,3.13
2024-03-04T18:45:10.120Z,4.15
2024-03-04T18:51:15.022Z,5.90
2024-03-04T18:57:19.939Z,5.22
2024-03-04T19:03:23.543Z,4.15
2024-03-04T19:09:27.199Z,4.95
2024-03-04T19:15:32.500Z,6.70
2024-03-04T19:21:36.008Z,5.88
2024-03-04T19:27:39.497Z,6.72
2024-03-04T19:33:44.371Z,6.63
2024-03-04T19:39:47.884Z,5.43
2024-03-04T19:45:51.389Z,5.60
2024-03-04T19:51:57.737Z,5.90
2024-03-04T19:58:02.681Z,6.70
2024-03-04T20:04:06.515Z,6.28
2024-03-04T20:10:12.362Z,7.13
2024-03-04T20:16:16.398Z,5.60
2024-03-04T20:22:20.055Z,6.30
2024-03-04T20:28:24.987Z,6.97
2024-03-04T20:34:28.707Z,7.40
2024-03-04T20:40:34.189Z,7.15
2024-03-04T20:46:39.080Z,6.88
2024-03-04T20:52:42.682Z,7.95
2024-03-04T20:58:46.412Z,7.65
2024-03-04T21:04:51.379Z,7.32
2024-03-04T21:10:54.952Z,7.95
2024-03-04T21:17:00.359Z,7.88
2024-03-04T21:23:05.769Z,7.05
2024-03-04T21:29:09.277Z,7.65
2024-03-04T21:35:13.994Z,9.02
2024-03-04T21:41:19.003Z,7.20
2024-03-04T21:47:22.707Z,6.93
2024-03-04T21:53:26.317Z,7.70
2024-03-04T21:59:31.139Z,8.38
2024-03-04T22:05:35.649Z,8.50
2024-03-04T22:11:46.444Z,9.02
2024-03-04T22:17:52.018Z,8.73
2024-03-04T22:23:55.489Z,9.32
2024-03-04T22:29:59.366Z,9.32
2024-03-04T22:36:05.763Z,8.30
2024-03-04T22:42:11.006Z,9.10
2024-03-04T22:48:14.909Z,8.65
2024-03-04T22:54:19.773Z,9.48
2024-03-04T23:00:28.126Z,8.98
2024-03-04T23:06:31.747Z,9.48
2024-03-04T23:12:37.321Z,9.88
2024-03-04T23:18:41.955Z,8.68
2024-03-04T23:24:45.443Z,8.45
2024-03-04T23:30:50.552Z,7.82
2024-03-04T23:36:55.206Z,8.07
2024-03-04T23:42:58.828Z,8.05
2024-03-04T23:49:05.159Z,7.47
2024-03-04T23:55:09.141Z,7.25
